Terminal Aerodrome Forecast
Issued by NWS

Home | Current Version | Previous Version | Text Only | Print | Product List | Glossary On
Versions: 1 2 3 4 5 6 7 8 9 10 11 12 13 14
000
FTUS44 KSJT 312342 CCA
TAFBBD
TAF COR
KBBD 312342Z 0100/0124 14008KT P6SM VCTS BKN040CB
      TEMPO 0101/0103 VRB20G30KT 4SM TSRA BKN020CB
     FM010500 14007KT P6SM VCSH BKN040
     FM010800 11005KT P6SM VCSH BKN015
     FM011600 09003KT P6SM VCSH BKN035
      AMD NOT SKED=

USA.gov is the U.S. government's official web portal to all federal, state and local government web resources and services.